KMQS

Chester County G O Carlson Airport

Coatesville, Pennsylvania, USA
METAR KMQS 151315Z AUTO 00000KT OVC043 M06/M11 A3008 RMK AO2
Observed Flight Rules
Dec-15 @ 13:15 UTC (31 minutes ago)
Wind Clouds
Calm
  • Overcast at 4,300' AGL
Temperatures Readings
Current -6°C / 21°F
Dewpoint -11°C / 12°F
Humidity 68%
Altimeter 30.08" Hg
Pressure 1019 hPa
Elevation 201
METAR KMQS 151315Z AUTO 00000KT OVC043 M06/M11 A3008 RMK AO2
Observed Flight Rules
Dec-15 @ 13:15 UTC
(31 minutes ago)
Wind
Calm
Clouds
  • Overcast at 4,300' AGL
Temperature Dewpoint
-6°C / 21°F -11°C / 12°F
Humidity Altimeter Pressure
68% 30.08" Hg 1019 hPa